Airfield :
LOGIN :

Register | Disclaimer

   EN    FR    IT 

 










Legend :    VFR   Marginal VFR   IFR   Intensive IFR   Very Intensive IFR
Visi :
Ceiling :
>= 8 km
>= 3000ft
5 to 8 km
1000 to 3000 ft
1500m to 5 km
500 to 1000 ft
800 to 1500m
200 to 500 ft
< 800m
< 200 ft
Symbols :   Thunderstorms  Fog  Heavy snow  Heavy precipitations  Wind > 20 kt
SIGMETs :     Misc.  Thunderstorms  Icing  Turbulence  Mountain Waves  Volcanic Ashes






- Airport Elevation : 0 ft


ETEB - Ansbach Army Heliport

EXPIRED METARs :
  • 262356Z AUTO 15005KT 0600 -FZDZ FZFG VV001 M01/M01 A3017 RMK AO2 FZDZE2258FZDZB11E25FZDZB26E40FZDZB54 SLP259 P0000 60000 T10151015 11005 21016 58002 RVRNO $
  • 262340Z AUTO 16004KT 0600 FZFG VV000 M02/M02 A3017 RMK AO2 FZDZE2258FZDZB11E25FZDZB26E40 SLP259 RVRNO $
  • 262327Z AUTO 14006KT 0800 -FZDZ FZFG VV000 M01/M01 A3017 RMK AO2 FZDZE2258FZDZB11E25FZDZB26 SLP259 RVRNO $
  • 262316Z AUTO 13004KT 0600 FZDZ FZFG VV000 M02/M02 A3017 RMK AO2 FZDZE2258FZDZB11 SLP259 RVRNO $
  • 262311Z AUTO 15005KT 0600 -FZDZ FZFG VV000 M02/M02 A3017 RMK AO2 FZDZE2258FZDZB11 SLP259 RVRNO $

Expired Forecast.



MET'MAP, your aeronautical weather chart ! - Copyright ORBIFLY December 2007 - Disclaimer

ORBIFLY MET'MAP TEAM :

Programming & Development : Alexandra Zaïnal
Concept & original design : Baudouin d'Aumeries
Assistance for programming : Marc-Olivier Méhu
Technical & hardware support : Manuel Goepfert

Contact : metmap@orbifly.com




SOURCES & CREDITS :

   NOAA